Time;durP1;ratioP1;P1;durP2;ratioP2;P2;SDS_P1;SDS_P2;PMS_P1;PMS_P2;Temp;Humidity;BMP_temperature;BMP_pressure;BME280_temperature;BME280_humidity;BME280_pressure;Samples;Min_cycle;Max_cycle;Signal;HPM_P1;HPM_P2
2022/11/07 05:16:53;;;;;;;;;20.25;20.25;;;;;;;;6486673;39;14801;-59
2022/11/07 05:23:11;;;;;;;;;25.67;21.33;;;;;;;;6489315;39;8923;-60
2022/11/07 05:29:14;;;;;;;;;31.25;24.25;;;;;;;;6489414;46;8876;-59
2022/11/07 05:35:19;;;;;;;;;25.25;23.25;;;;;;;;6484479;46;9024;-59
2022/11/07 05:41:23;;;;;;;;;32.67;29.33;;;;;;;;6488871;39;9102;-58
2022/11/07 05:47:25;;;;;;;;;28.33;23.33;;;;;;;;6489069;39;8984;-59
2022/11/07 05:53:28;;;;;;;;;26.00;24.25;;;;;;;;6487887;46;8916;-61
2022/11/07 05:59:33;;;;;;;;;20.33;20.33;;;;;;;;6489665;39;8938;-59
2022/11/07 06:05:38;;;;;;;;;21.67;20.67;;;;;;;;6488259;39;9032;-59
2022/11/07 06:11:40;;;;;;;;;25.00;21.00;;;;;;;;6488462;39;8959;-60
2022/11/07 06:17:42;;;;;;;;;22.25;20.00;;;;;;;;6489258;39;8994;-59
2022/11/07 06:23:45;;;;;;;;;22.00;21.00;;;;;;;;6488261;39;8855;-59
2022/11/07 06:29:47;;;;;;;;;26.67;24.33;;;;;;;;6487579;31;8917;-59
2022/11/07 06:35:49;;;;;;;;;25.25;24.50;;;;;;;;6487898;31;9421;-60
2022/11/07 06:41:55;;;;;;;;;27.00;23.00;;;;;;;;6487247;39;8864;-60
2022/11/07 06:47:58;;;;;;;;;28.00;23.75;;;;;;;;6488995;31;8890;-61
2022/11/07 06:54:00;;;;;;;;;24.67;24.00;;;;;;;;6491728;39;8805;-61
2022/11/07 07:00:09;;;;;;;;;23.00;20.33;;;;;;;;6491148;46;8932;-62
2022/11/07 07:06:14;;;;;;;;;23.00;20.00;;;;;;;;6490590;31;8965;-61
2022/11/07 07:12:17;;;;;;;;;24.00;21.33;;;;;;;;6489372;31;8946;-61
2022/11/07 07:18:20;;;;;;;;;26.33;22.33;;;;;;;;6490294;39;8818;-59
2022/11/07 07:24:23;;;;;;;;;21.67;20.67;;;;;;;;6489295;31;8883;-60
2022/11/07 07:30:26;;;;;;;;;26.00;25.25;;;;;;;;6489137;31;8925;-60
2022/11/07 07:36:31;;;;;;;;;39.25;35.00;;;;;;;;6487714;39;9676;-60
2022/11/07 07:42:39;;;;;;;;;21.67;19.67;;;;;;;;6487887;39;8917;-61
2022/11/07 07:48:43;;;;;;;;;32.00;25.33;;;;;;;;6490332;31;9029;-59
2022/11/07 07:54:47;;;;;;;;;27.67;24.00;;;;;;;;6489271;39;8909;-59
2022/11/07 08:00:53;;;;;;;;;24.67;24.00;;;;;;;;6488993;31;8922;-61
2022/11/07 08:06:56;;;;;;;;;22.00;17.33;;;;;;;;6489592;39;8940;-60
2022/11/07 08:12:58;;;;;;;;;25.00;23.33;;;;;;;;6489229;31;8950;-60
2022/11/07 08:19:00;;;;;;;;;31.33;29.00;;;;;;;;6486636;46;8895;-59
2022/11/07 08:25:05;;;;;;;;;23.00;21.33;;;;;;;;6487890;39;8893;-59
2022/11/07 08:31:14;;;;;;;;;12.33;12.33;;;;;;;;6487150;31;8951;-61
2022/11/07 08:37:16;;;;;;;;;20.33;17.00;;;;;;;;6487693;46;8909;-59
2022/11/07 08:43:19;;;;;;;;;22.33;20.67;;;;;;;;6487829;39;9009;-61
2022/11/07 08:49:25;;;;;;;;;23.33;21.67;;;;;;;;6488696;46;8905;-60
2022/11/07 08:55:28;;;;;;;;;21.33;18.00;;;;;;;;6487008;46;9063;-61
2022/11/07 09:01:31;;;;;;;;;23.00;20.00;;;;;;;;6487155;39;8933;-60
2022/11/07 09:07:56;;;;;;;;;27.67;25.00;;;;;;;;6487534;39;8938;-62
2022/11/07 09:13:58;;;;;;;;;23.33;22.33;;;;;;;;6487605;31;8942;-59
2022/11/07 09:20:01;;;;;;;;;24.33;21.33;;;;;;;;6487072;46;9013;-60
2022/11/07 09:26:05;;;;;;;;;19.00;16.67;;;;;;;;6487473;31;8931;-60
2022/11/07 09:32:07;;;;;;;;;34.33;27.00;;;;;;;;6488912;46;8905;-59
2022/11/07 09:38:30;;;;;;;;;16.33;16.33;;;;;;;;6488405;39;8962;-60
2022/11/07 09:44:53;;;;;;;;;24.67;20.00;;;;;;;;6487311;39;9465;-60
2022/11/07 09:50:57;;;;;;;;;40.67;36.00;;;;;;;;6488093;39;9973;-61
2022/11/07 09:57:02;;;;;;;;;16.33;16.33;;;;;;;;6487989;46;9027;-61
2022/11/07 10:03:09;;;;;;;;;34.33;31.67;;;;;;;;6489163;39;8969;-61
2022/11/07 10:09:15;;;;;;;;;23.67;21.67;;;;;;;;6488004;31;8931;-59
2022/11/07 10:15:31;;;;;;;;;18.33;18.33;;;;;;;;6486232;47;9861;-60
2022/11/07 10:22:19;;;;;;;;;23.67;21.33;;;;;;;;6485549;39;8962;-59
2022/11/07 10:28:28;;;;;;;;;26.67;22.33;;;;;;;;6488252;39;8871;-59
2022/11/07 10:35:03;;;;;;;;;18.00;16.67;;;;;;;;6490051;31;8912;-61
2022/11/07 10:41:16;;;;;;;;;24.67;20.00;;;;;;;;6490366;31;8959;-60
2022/11/07 10:47:22;;;;;;;;;17.33;15.33;;;;;;;;6489169;31;9073;-61
2022/11/07 10:53:25;;;;;;;;;57.50;47.00;;;;;;;;6489383;31;8914;-60
2022/11/07 10:59:30;;;;;;;;;20.67;20.67;;;;;;;;6490896;31;9132;-59
2022/11/07 11:05:38;;;;;;;;;18.33;18.33;;;;;;;;6490700;31;8952;-61
2022/11/07 11:11:40;;;;;;;;;49.33;40.00;;;;;;;;6490160;39;8907;-60
2022/11/07 11:17:58;;;;;;;;;23.67;21.00;;;;;;;;6490647;39;9040;-60
2022/11/07 11:24:12;;;;;;;;;21.33;21.33;;;;;;;;6490020;39;9073;-59
2022/11/07 11:30:19;;;;;;;;;32.67;25.67;;;;;;;;6490132;31;9113;-59
2022/11/07 11:36:32;;;;;;;;;23.33;23.00;;;;;;;;6488405;39;9053;-59
2022/11/07 11:42:47;;;;;;;;;27.33;25.33;;;;;;;;6489441;31;8890;-60
2022/11/07 11:49:04;;;;;;;;;37.00;32.33;;;;;;;;6488482;39;9047;-60
2022/11/07 11:55:18;;;;;;;;;30.33;26.67;;;;;;;;6488567;39;8883;-59
2022/11/07 12:01:38;;;;;;;;;30.67;27.33;;;;;;;;6485726;39;8915;-59
2022/11/07 12:07:54;;;;;;;;;32.67;27.00;;;;;;;;6488496;46;8946;-60
2022/11/07 12:14:02;;;;;;;;;39.67;35.67;;;;;;;;6488197;39;9018;-60
2022/11/07 12:20:37;;;;;;;;;27.67;25.67;;;;;;;;6487557;46;8957;-60
2022/11/07 12:26:56;;;;;;;;;28.00;27.00;;;;;;;;6489880;31;9726;-60
2022/11/07 12:33:18;;;;;;;;;25.00;23.67;;;;;;;;6488438;39;9057;-61
2022/11/07 12:39:43;;;;;;;;;25.00;23.00;;;;;;;;6490500;31;8924;-59
2022/11/07 12:45:49;;;;;;;;;35.33;33.00;;;;;;;;6489164;31;9027;-60
2022/11/07 12:52:19;;;;;;;;;28.00;27.67;;;;;;;;6489439;31;8886;-60
2022/11/07 12:58:29;;;;;;;;;27.00;24.33;;;;;;;;6487356;46;8925;-60
2022/11/07 13:04:48;;;;;;;;;24.33;18.67;;;;;;;;6488055;39;9037;-60
2022/11/07 13:11:21;;;;;;;;;23.67;22.33;;;;;;;;6487705;39;8972;-60
2022/11/07 13:17:36;;;;;;;;;26.33;25.33;;;;;;;;6489094;39;9533;-60
2022/11/07 13:23:42;;;;;;;;;24.00;21.67;;;;;;;;6487413;39;8913;-61
2022/11/07 13:29:44;;;;;;;;;21.00;20.33;;;;;;;;6488836;31;9588;-60
2022/11/07 13:35:53;;;;;;;;;27.00;25.00;;;;;;;;6490116;31;8942;-60
2022/11/07 13:41:58;;;;;;;;;27.33;24.00;;;;;;;;6488964;39;8914;-61
2022/11/07 13:48:07;;;;;;;;;20.00;17.67;;;;;;;;6488947;46;8933;-64
2022/11/07 13:54:27;;;;;;;;;28.00;27.00;;;;;;;;6488521;46;8918;-60
2022/11/07 14:00:35;;;;;;;;;38.33;33.33;;;;;;;;6489272;39;8898;-62
2022/11/07 14:06:40;;;;;;;;;31.33;30.33;;;;;;;;6488892;47;8965;-60
2022/11/07 14:12:43;;;;;;;;;28.67;28.33;;;;;;;;6488649;39;9605;-58
2022/11/07 14:18:59;;;;;;;;;24.33;23.67;;;;;;;;6506711;36;8926;-60
2022/11/07 14:25:03;;;;;;;;;51.75;43.75;;;;;;;;6489267;39;8982;-60
2022/11/07 14:31:14;;;;;;;;;32.67;30.00;;;;;;;;6489701;31;9011;-60
2022/11/07 14:37:23;;;;;;;;;25.67;23.67;;;;;;;;6488934;47;8917;-61
2022/11/07 14:43:27;;;;;;;;;32.00;27.67;;;;;;;;6489811;39;8869;-61
2022/11/07 14:49:48;;;;;;;;;29.00;25.00;;;;;;;;6488471;31;8968;-62
2022/11/07 14:55:55;;;;;;;;;31.00;29.33;;;;;;;;6488488;39;9632;-60
2022/11/07 15:02:19;;;;;;;;;27.25;23.50;;;;;;;;6490068;47;8866;-60
2022/11/07 15:08:38;;;;;;;;;39.67;36.33;;;;;;;;6488803;39;8862;-61
2022/11/07 15:14:40;;;;;;;;;32.67;31.33;;;;;;;;6491015;31;8830;-59
2022/11/07 15:20:42;;;;;;;;;38.33;29.33;;;;;;;;6490724;39;8881;-60
2022/11/07 15:26:44;;;;;;;;;35.25;31.00;;;;;;;;6491551;39;8949;-59
2022/11/07 15:32:46;;;;;;;;;36.00;34.75;;;;;;;;6490677;31;8959;-61
2022/11/07 15:38:51;;;;;;;;;39.50;35.25;;;;;;;;6489538;39;8909;-60
2022/11/07 15:44:54;;;;;;;;;38.50;35.50;;;;;;;;6491690;31;8941;-60
2022/11/07 15:50:56;;;;;;;;;39.00;34.25;;;;;;;;6491116;31;8909;-59
2022/11/07 15:57:00;;;;;;;;;39.25;36.75;;;;;;;;6490355;46;8912;-61
2022/11/07 16:03:03;;;;;;;;;39.75;37.00;;;;;;;;6491229;39;8936;-60
2022/11/07 16:09:15;;;;;;;;;41.67;36.67;;;;;;;;6490105;39;8902;-60
2022/11/07 16:15:21;;;;;;;;;39.00;34.00;;;;;;;;6491533;39;9457;-59
2022/11/07 16:21:33;;;;;;;;;44.25;37.75;;;;;;;;6489453;31;8837;-58
2022/11/07 16:27:35;;;;;;;;;37.25;34.25;;;;;;;;6490537;31;8905;-59
2022/11/07 16:33:37;;;;;;;;;45.50;39.50;;;;;;;;6492378;31;8929;-59
2022/11/07 16:39:39;;;;;;;;;57.50;43.00;;;;;;;;6490627;43;8865;-62
2022/11/07 16:45:54;;;;;;;;;52.50;43.75;;;;;;;;6491870;31;8896;-61
2022/11/07 16:51:57;;;;;;;;;56.75;46.00;;;;;;;;6490564;31;8889;-60
2022/11/07 16:58:02;;;;;;;;;51.75;43.00;;;;;;;;6489913;46;8870;-58
2022/11/07 17:04:07;;;;;;;;;61.00;52.25;;;;;;;;6491297;31;8924;-60
2022/11/07 17:10:16;;;;;;;;;63.25;52.50;;;;;;;;6490515;39;9595;-58
2022/11/07 17:16:28;;;;;;;;;66.50;55.00;;;;;;;;6492413;31;8834;-60
2022/11/07 17:22:30;;;;;;;;;73.25;59.25;;;;;;;;6490611;39;8849;-59
2022/11/07 17:28:33;;;;;;;;;77.50;60.25;;;;;;;;6526186;36;8890;-59
2022/11/07 17:34:35;;;;;;;;;75.00;57.00;;;;;;;;6310581;39;10000574;-58
2022/11/07 17:40:37;;;;;;;;;64.50;52.75;;;;;;;;6489899;39;8864;-60
2022/11/07 17:46:43;;;;;;;;;70.00;54.75;;;;;;;;6310790;39;10000296;-58
2022/11/07 17:52:46;;;;;;;;;70.00;54.75;;;;;;;;6489992;39;8935;-60
2022/11/07 17:58:54;;;;;;;;;66.00;54.00;;;;;;;;6489403;46;8861;-59
2022/11/07 18:04:57;;;;;;;;;64.75;53.50;;;;;;;;6490430;39;9114;-60
2022/11/07 18:11:00;;;;;;;;;61.75;51.50;;;;;;;;6489613;47;8892;-60
2022/11/07 18:17:03;;;;;;;;;64.75;51.50;;;;;;;;6490371;47;8913;-60
2022/11/07 18:23:05;;;;;;;;;61.25;50.00;;;;;;;;6489447;31;9296;-59
2022/11/07 18:29:11;;;;;;;;;61.50;50.00;;;;;;;;6489425;39;8844;-59
2022/11/07 18:35:12;;;;;;;;;65.25;50.50;;;;;;;;6596993;31;8891;-60
2022/11/07 18:41:22;;;;;;;;;69.75;53.50;;;;;;;;7427535;31;8870;-59
2022/11/07 18:47:25;;;;;;;;;60.50;48.50;;;;;;;;6484905;39;9628;-60
2022/11/07 18:53:29;;;;;;;;;64.00;51.75;;;;;;;;6486549;39;8931;-60
2022/11/07 18:59:31;;;;;;;;;67.00;52.50;;;;;;;;6486429;31;8873;-60
2022/11/07 19:05:33;;;;;;;;;64.00;53.00;;;;;;;;6488429;39;8953;-59
2022/11/07 19:11:41;;;;;;;;;68.50;55.25;;;;;;;;6308628;46;10001642;-59
2022/11/07 19:17:47;;;;;;;;;66.25;53.00;;;;;;;;6489301;39;8890;-58
2022/11/07 19:23:51;;;;;;;;;68.50;55.00;;;;;;;;6489901;46;8940;-59
2022/11/07 19:29:55;;;;;;;;;74.75;56.75;;;;;;;;6489974;39;8920;-59
2022/11/07 19:36:03;;;;;;;;;73.25;56.00;;;;;;;;6490034;31;8944;-59
2022/11/07 19:42:07;;;;;;;;;70.50;56.25;;;;;;;;6489644;39;9571;-61
2022/11/07 19:48:10;;;;;;;;;69.75;56.50;;;;;;;;6489956;31;8940;-59
2022/11/07 19:54:12;;;;;;;;;75.50;58.75;;;;;;;;6489524;31;8873;-60
2022/11/07 20:00:19;;;;;;;;;79.25;60.50;;;;;;;;6490092;31;9438;-60
2022/11/07 20:06:29;;;;;;;;;68.75;55.00;;;;;;;;6490248;31;8920;-60
2022/11/07 20:12:31;;;;;;;;;71.75;55.00;;;;;;;;6491437;36;8886;-60
2022/11/07 20:18:35;;;;;;;;;67.00;55.50;;;;;;;;6489491;39;8858;-59
2022/11/07 20:24:38;;;;;;;;;65.50;54.00;;;;;;;;6489227;31;8981;-59
2022/11/07 20:30:40;;;;;;;;;71.25;56.50;;;;;;;;6489993;31;8968;-58
2022/11/07 20:36:45;;;;;;;;;79.00;61.25;;;;;;;;6489457;39;9522;-59
2022/11/07 20:42:47;;;;;;;;;78.00;61.50;;;;;;;;6489015;39;8866;-60
2022/11/07 20:48:50;;;;;;;;;77.00;60.00;;;;;;;;6489056;39;9578;-60
2022/11/07 20:54:52;;;;;;;;;82.75;61.25;;;;;;;;6488952;39;9609;-59
2022/11/07 21:00:56;;;;;;;;;70.25;56.00;;;;;;;;6488775;46;8891;-59
2022/11/07 21:06:58;;;;;;;;;72.00;57.25;;;;;;;;6488864;39;8918;-59
2022/11/07 21:13:00;;;;;;;;;75.75;60.00;;;;;;;;6488664;39;8982;-60
2022/11/07 21:19:04;;;;;;;;;77.75;60.50;;;;;;;;6488846;31;8894;-59
2022/11/07 21:25:06;;;;;;;;;75.25;58.25;;;;;;;;6488758;39;8906;-59
2022/11/07 21:31:20;;;;;;;;;62.25;50.75;;;;;;;;6489016;31;8953;-59
2022/11/07 21:37:26;;;;;;;;;68.00;55.00;;;;;;;;6489294;46;8843;-59
2022/11/07 21:43:35;;;;;;;;;61.50;49.25;;;;;;;;6489355;39;8890;-59
2022/11/07 21:49:38;;;;;;;;;61.75;52.00;;;;;;;;6488621;46;8895;-59
2022/11/07 21:55:41;;;;;;;;;66.25;54.25;;;;;;;;6488378;46;8866;-59
2022/11/07 22:01:43;;;;;;;;;65.75;55.25;;;;;;;;6488466;46;8907;-62
2022/11/07 22:07:45;;;;;;;;;61.25;48.00;;;;;;;;6488834;39;8842;-62
2022/11/07 22:13:47;;;;;;;;;61.75;48.00;;;;;;;;6488125;47;8867;-60
2022/11/07 22:19:49;;;;;;;;;64.75;52.75;;;;;;;;6489008;39;8949;-60
2022/11/07 22:25:52;;;;;;;;;60.00;48.25;;;;;;;;6489109;46;8902;-65
2022/11/07 22:31:55;;;;;;;;;57.75;46.00;;;;;;;;6490712;31;8957;-63
2022/11/07 22:37:58;;;;;;;;;60.75;48.75;;;;;;;;6490102;31;8883;-60
2022/11/07 22:44:02;;;;;;;;;60.00;49.50;;;;;;;;6490479;31;8850;-60
2022/11/07 22:50:05;;;;;;;;;58.50;47.50;;;;;;;;6490028;39;9543;-61
2022/11/07 22:56:17;;;;;;;;;62.75;48.25;;;;;;;;6489849;31;8902;-59
2022/11/07 23:02:19;;;;;;;;;58.50;48.25;;;;;;;;6489677;39;9028;-59
2022/11/07 23:08:23;;;;;;;;;59.00;47.00;;;;;;;;6490316;39;8965;-59
2022/11/07 23:14:26;;;;;;;;;62.25;49.75;;;;;;;;6490208;39;8897;-59
2022/11/07 23:26:50;;;;;;;;;54.50;44.50;;;;;;;;6489075;39;9030;-58
2022/11/07 23:32:53;;;;;;;;;58.00;46.25;;;;;;;;6489392;39;8996;-60
2022/11/07 23:39:01;;;;;;;;;58.75;48.75;;;;;;;;6489177;46;8922;-60
2022/11/07 23:51:26;;;;;;;;;50.25;42.25;;;;;;;;6489424;31;8938;-59
